createdAt,value
2019-01-24T00:01:13.292Z,-3.81
2019-01-24T00:03:42.885Z,-3.58
2019-01-24T00:06:12.561Z,-3.33
2019-01-24T00:08:42.130Z,-3.76
2019-01-24T00:11:11.628Z,-3.62
2019-01-24T00:13:41.150Z,-3.59
2019-01-24T00:16:10.681Z,-3.77
2019-01-24T00:18:40.260Z,-3.55
2019-01-24T00:21:09.750Z,-3.37
2019-01-24T00:23:39.280Z,-3.24
2019-01-24T00:26:10.486Z,-3.67
2019-01-24T00:28:40.024Z,-3.29
2019-01-24T00:31:09.598Z,-3.48
2019-01-24T00:33:39.326Z,-3.64
2019-01-24T00:36:08.898Z,-3.80
2019-01-24T00:38:38.466Z,-3.74
2019-01-24T00:41:07.964Z,-3.85
2019-01-24T00:43:37.530Z,-3.76
2019-01-24T00:46:07.055Z,-3.88
2019-01-24T00:48:36.576Z,-3.83
2019-01-24T00:51:06.156Z,-3.75
2019-01-24T00:53:35.687Z,-3.73
2019-01-24T00:56:05.335Z,-3.82
2019-01-24T00:58:34.844Z,-3.87
2019-01-24T01:01:04.479Z,-3.89
2019-01-24T01:03:34.041Z,-3.87
2019-01-24T01:06:03.536Z,-3.83
2019-01-24T01:08:33.066Z,-3.79
2019-01-24T01:11:02.779Z,-3.48
2019-01-24T01:13:32.268Z,-3.22
2019-01-24T01:16:01.840Z,-3.42
2019-01-24T01:18:31.391Z,-3.39
2019-01-24T01:21:01.907Z,-3.34
2019-01-24T01:23:31.465Z,-3.71
2019-01-24T01:26:01.002Z,-3.74
2019-01-24T01:28:30.498Z,-3.33
2019-01-24T01:31:00.072Z,-3.34
2019-01-24T01:33:30.560Z,-3.59
2019-01-24T01:36:00.052Z,-3.49
2019-01-24T01:38:29.622Z,-3.63
2019-01-24T01:40:59.147Z,-3.78
2019-01-24T01:43:28.776Z,-3.83
2019-01-24T01:45:58.803Z,-3.51
2019-01-24T01:48:28.302Z,-3.37
2019-01-24T01:50:57.818Z,-3.29
2019-01-24T01:53:27.333Z,-3.61
2019-01-24T01:55:56.886Z,-3.44
2019-01-24T01:58:27.065Z,-3.30
2019-01-24T02:00:56.785Z,-3.55
2019-01-24T02:03:26.283Z,-3.73
2019-01-24T02:05:55.778Z,-3.71
2019-01-24T02:08:25.466Z,-3.77
2019-01-24T02:10:55.546Z,-3.73
2019-01-24T02:13:25.121Z,-3.85
2019-01-24T02:15:54.704Z,-3.84
2019-01-24T02:18:24.203Z,-3.82
2019-01-24T02:20:53.714Z,-3.62
2019-01-24T02:23:43.558Z,-3.37
2019-01-24T02:26:13.143Z,-3.27
2019-01-24T02:28:42.711Z,-3.79
2019-01-24T02:31:12.239Z,-3.71
2019-01-24T02:33:41.748Z,-3.23
2019-01-24T02:36:11.264Z,-3.24
2019-01-24T02:38:40.756Z,-3.24
2019-01-24T02:41:10.284Z,-3.22
2019-01-24T02:43:40.192Z,-3.40
2019-01-24T02:46:09.709Z,-3.59
2019-01-24T02:48:39.267Z,-3.75
2019-01-24T02:51:08.762Z,-3.57
2019-01-24T02:53:38.254Z,-3.87
2019-01-24T02:56:08.728Z,-3.81
2019-01-24T02:58:38.281Z,-3.74
2019-01-24T03:01:07.942Z,-3.70
2019-01-24T03:03:37.444Z,-3.78
2019-01-24T03:06:07.001Z,-3.73
2019-01-24T03:08:37.090Z,-4.02
2019-01-24T03:11:06.613Z,-3.97
2019-01-24T03:13:36.133Z,-3.79
2019-01-24T03:16:06.026Z,-3.91
2019-01-24T03:18:35.519Z,-3.88
2019-01-24T03:21:05.695Z,-4.04
2019-01-24T03:23:35.278Z,-3.96
2019-01-24T03:26:04.851Z,-4.02
2019-01-24T03:28:34.357Z,-4.02
2019-01-24T03:31:03.909Z,-3.75
2019-01-24T03:33:34.018Z,-3.89
2019-01-24T03:36:03.532Z,-3.91
2019-01-24T03:38:33.078Z,-4.06
2019-01-24T03:41:02.650Z,-3.82
2019-01-24T03:43:32.146Z,-3.98
2019-01-24T03:46:02.516Z,-3.90
2019-01-24T03:48:32.011Z,-3.97
2019-01-24T03:51:01.512Z,-3.79
2019-01-24T03:53:31.073Z,-3.91
2019-01-24T03:56:00.538Z,-3.97
2019-01-24T03:58:30.798Z,-3.98
2019-01-24T04:01:00.545Z,-3.94
2019-01-24T04:03:30.116Z,-4.06
2019-01-24T04:05:59.657Z,-3.82
2019-01-24T04:08:29.190Z,-3.86
2019-01-24T04:10:59.120Z,-3.83
2019-01-24T04:13:28.718Z,-3.97
2019-01-24T04:15:58.236Z,-3.87
2019-01-24T04:18:27.743Z,-3.93
2019-01-24T04:20:57.252Z,-3.89
2019-01-24T04:23:27.393Z,-3.92
2019-01-24T04:25:56.983Z,-3.83
2019-01-24T04:28:26.487Z,-3.83
2019-01-24T04:30:56.007Z,-3.81
2019-01-24T04:33:25.535Z,-3.85
2019-01-24T04:35:55.924Z,-3.81
2019-01-24T04:38:25.466Z,-3.76
2019-01-24T04:40:54.975Z,-3.75
2019-01-24T04:43:24.481Z,-3.94
2019-01-24T04:45:54.078Z,-3.63
2019-01-24T04:48:24.205Z,-3.42
2019-01-24T04:50:53.702Z,-3.49
2019-01-24T04:53:23.218Z,-3.70
2019-01-24T04:55:52.746Z,-3.60
2019-01-24T04:58:22.283Z,-3.85
2019-01-24T05:00:52.688Z,-3.64
2019-01-24T05:03:22.207Z,-3.82
2019-01-24T05:05:51.736Z,-3.73
2019-01-24T05:08:21.271Z,-3.63
2019-01-24T05:10:50.787Z,-3.74
2019-01-24T05:13:21.144Z,-3.86
2019-01-24T05:15:50.730Z,-3.86
2019-01-24T05:18:20.227Z,-3.81
2019-01-24T05:21:09.126Z,-3.77
2019-01-24T05:23:38.636Z,-3.68
2019-01-24T05:26:09.665Z,-3.74
2019-01-24T05:28:58.505Z,-3.74
2019-01-24T05:31:29.791Z,-3.73
2019-01-24T05:33:59.299Z,-3.77
2019-01-24T05:36:28.819Z,-4.05
2019-01-24T05:38:58.302Z,-3.82
2019-01-24T05:41:27.824Z,-3.80
2019-01-24T05:43:58.089Z,-4.02
2019-01-24T05:46:27.630Z,-3.90
2019-01-24T05:48:57.126Z,-3.68
2019-01-24T05:51:26.628Z,-3.88
2019-01-24T05:53:56.155Z,-3.99
2019-01-24T05:56:26.446Z,-4.13
2019-01-24T05:58:55.931Z,-3.91
2019-01-24T06:01:25.850Z,-3.69
2019-01-24T06:03:55.452Z,-3.60
2019-01-24T06:06:24.956Z,-3.64
2019-01-24T06:08:54.746Z,-3.65
2019-01-24T06:11:24.292Z,-3.71
2019-01-24T06:13:53.817Z,-3.68
2019-01-24T06:16:23.392Z,-3.73
2019-01-24T06:18:52.915Z,-3.73
2019-01-24T06:21:23.100Z,-3.68
2019-01-24T06:23:52.603Z,-3.77
2019-01-24T06:26:22.115Z,-3.85
2019-01-24T06:28:51.615Z,-3.59
2019-01-24T06:31:21.134Z,-3.60
2019-01-24T06:33:51.375Z,-3.62
2019-01-24T06:36:20.893Z,-3.67
2019-01-24T06:38:50.395Z,-3.83
2019-01-24T06:41:19.928Z,-3.79
2019-01-24T06:43:49.435Z,-3.73
2019-01-24T06:46:19.680Z,-3.93
2019-01-24T06:48:49.199Z,-3.62
2019-01-24T06:51:18.750Z,-3.75
2019-01-24T06:53:48.260Z,-3.68
2019-01-24T06:56:17.771Z,-3.73
2019-01-24T06:58:48.101Z,-3.76
2019-01-24T07:01:17.617Z,-3.59
2019-01-24T07:03:47.224Z,-3.87
2019-01-24T07:06:16.723Z,-3.50
2019-01-24T07:08:46.251Z,-3.71
2019-01-24T07:11:16.434Z,-3.43
2019-01-24T07:13:45.957Z,-3.38
2019-01-24T07:16:15.466Z,-3.40
2019-01-24T07:18:44.999Z,-3.35
2019-01-24T07:21:14.503Z,-3.62
2019-01-24T07:23:45.045Z,-3.40
2019-01-24T07:26:14.560Z,-3.36
2019-01-24T07:28:44.085Z,-3.49
2019-01-24T07:31:13.704Z,-3.40
2019-01-24T07:33:43.191Z,-3.64
2019-01-24T07:36:13.517Z,-3.52
2019-01-24T07:38:43.034Z,-3.60
2019-01-24T07:41:12.536Z,-3.42
2019-01-24T07:43:42.042Z,-3.48
2019-01-24T07:46:11.859Z,-3.70
2019-01-24T07:48:41.940Z,-3.53
2019-01-24T07:51:11.451Z,-3.62
2019-01-24T07:53:40.969Z,-3.25
2019-01-24T07:56:10.474Z,-3.32
2019-01-24T07:58:40.043Z,-3.59
2019-01-24T08:01:10.118Z,-3.11
2019-01-24T08:03:39.632Z,-3.06
2019-01-24T08:06:09.432Z,-3.02
2019-01-24T08:08:38.914Z,-3.29
2019-01-24T08:11:08.409Z,-2.98
2019-01-24T08:13:38.483Z,-2.97
2019-01-24T08:16:08.007Z,-2.99
2019-01-24T08:18:37.519Z,-3.02
2019-01-24T08:21:07.016Z,-2.73
2019-01-24T08:23:36.550Z,-2.63
2019-01-24T08:26:07.045Z,-2.64
2019-01-24T08:28:36.566Z,-2.50
2019-01-24T08:31:06.312Z,-2.46
2019-01-24T08:33:35.837Z,-2.83
2019-01-24T08:36:05.520Z,-2.76
2019-01-24T08:38:35.451Z,-2.92
2019-01-24T08:41:05.033Z,-2.91
2019-01-24T08:43:34.548Z,-2.77
2019-01-24T08:46:04.120Z,-2.96
2019-01-24T08:48:33.647Z,-2.58
2019-01-24T08:51:03.809Z,-2.65
2019-01-24T08:53:52.671Z,-2.54
2019-01-24T08:56:22.174Z,-2.33
2019-01-24T08:58:51.714Z,-2.20
2019-01-24T09:01:21.290Z,-1.76
2019-01-24T09:03:50.817Z,-1.16
2019-01-24T09:06:22.653Z,-1.02
2019-01-24T09:08:51.573Z,-0.88
2019-01-24T09:11:21.085Z,-0.63
2019-01-24T09:13:50.603Z,0.36
2019-01-24T09:16:20.089Z,2.07
2019-01-24T09:18:49.598Z,3.77
2019-01-24T09:21:38.422Z,2.50
2019-01-24T09:24:07.938Z,2.60
2019-01-24T09:26:37.447Z,2.57
2019-01-24T09:29:07.029Z,3.85
2019-01-24T09:31:37.037Z,3.39
2019-01-24T09:34:06.551Z,2.32
2019-01-24T09:36:36.113Z,2.56
2019-01-24T09:39:08.473Z,2.23
2019-01-24T09:41:37.960Z,1.81
2019-01-24T09:44:07.485Z,3.06
2019-01-24T09:46:36.992Z,2.66
2019-01-24T09:49:06.735Z,2.41
2019-01-24T09:51:36.224Z,1.73
2019-01-24T09:54:05.822Z,2.39
2019-01-24T09:56:36.629Z,2.93
2019-01-24T09:59:06.145Z,4.75
2019-01-24T10:01:35.633Z,5.33
2019-01-24T10:04:05.139Z,3.26
2019-01-24T10:06:36.381Z,4.04
2019-01-24T10:09:08.322Z,3.94
2019-01-24T10:11:37.899Z,3.80
2019-01-24T10:14:07.573Z,5.68
2019-01-24T10:16:37.115Z,4.40
2019-01-24T10:19:06.698Z,3.57
2019-01-24T10:21:36.202Z,3.39
2019-01-24T10:24:05.952Z,2.73
2019-01-24T10:26:35.503Z,2.75
2019-01-24T10:29:05.046Z,3.51
2019-01-24T10:31:34.599Z,2.02
2019-01-24T10:34:04.683Z,1.74
2019-01-24T10:36:35.403Z,2.55
2019-01-24T10:39:08.099Z,1.74
2019-01-24T10:41:37.686Z,1.46
2019-01-24T10:44:07.168Z,1.51
2019-01-24T10:46:36.672Z,1.16
2019-01-24T10:49:06.205Z,2.13
2019-01-24T10:51:35.783Z,3.04
2019-01-24T10:54:05.304Z,3.98
2019-01-24T10:56:35.330Z,4.38
2019-01-24T10:59:04.924Z,3.54
2019-01-24T11:01:34.436Z,3.68
2019-01-24T11:04:04.077Z,4.68
2019-01-24T11:06:33.632Z,5.62
2019-01-24T11:09:04.623Z,5.74
2019-01-24T11:11:34.128Z,2.97
2019-01-24T11:14:03.729Z,2.30
2019-01-24T11:16:33.665Z,2.20
2019-01-24T11:19:03.227Z,2.62
2019-01-24T11:21:34.280Z,2.94
2019-01-24T11:24:03.936Z,2.67
2019-01-24T11:26:33.441Z,1.61
2019-01-24T11:29:02.930Z,2.03
2019-01-24T11:31:32.504Z,1.42
2019-01-24T11:34:02.075Z,1.29
2019-01-24T11:36:31.578Z,2.49
2019-01-24T11:39:01.107Z,2.24
2019-01-24T11:41:30.620Z,2.75
2019-01-24T11:44:00.101Z,4.94
2019-01-24T11:46:29.620Z,7.18
2019-01-24T11:48:59.124Z,3.82
2019-01-24T11:51:28.751Z,3.20
2019-01-24T11:53:58.255Z,3.19
2019-01-24T11:56:27.796Z,4.09
2019-01-24T11:58:57.277Z,3.31
2019-01-24T12:01:26.820Z,3.62
2019-01-24T12:03:56.326Z,3.17
2019-01-24T12:06:25.814Z,2.30
2019-01-24T12:08:55.339Z,1.94
2019-01-24T12:11:24.865Z,1.80
2019-01-24T12:13:54.377Z,1.04
2019-01-24T12:16:23.897Z,1.29
2019-01-24T12:18:54.555Z,4.48
2019-01-24T12:21:24.096Z,5.37
2019-01-24T12:23:53.624Z,5.81
2019-01-24T12:26:23.137Z,5.31
2019-01-24T12:28:52.631Z,7.64
2019-01-24T12:31:22.262Z,8.76
2019-01-24T12:33:51.755Z,8.22
2019-01-24T12:36:21.382Z,8.17
2019-01-24T12:38:50.879Z,6.99
2019-01-24T12:41:20.504Z,5.55
2019-01-24T12:43:50.531Z,5.21
2019-01-24T12:46:20.092Z,4.84
2019-01-24T12:48:49.697Z,5.58
2019-01-24T12:51:19.228Z,5.47
2019-01-24T12:53:48.841Z,5.72
2019-01-24T12:56:18.952Z,5.45
2019-01-24T12:58:48.524Z,5.30
2019-01-24T13:01:18.014Z,5.22
2019-01-24T13:03:47.544Z,5.42
2019-01-24T13:06:17.069Z,5.53
2019-01-24T13:08:47.241Z,3.73
2019-01-24T13:11:16.727Z,3.21
2019-01-24T13:13:46.292Z,2.89
2019-01-24T13:16:15.830Z,3.24
2019-01-24T13:18:45.371Z,1.97
2019-01-24T13:21:15.668Z,1.53
2019-01-24T13:23:45.221Z,1.67
2019-01-24T13:26:14.739Z,1.17
2019-01-24T13:28:44.267Z,1.04
2019-01-24T13:31:13.782Z,1.00
2019-01-24T13:33:43.871Z,0.84
2019-01-24T13:36:13.404Z,0.99
2019-01-24T13:38:42.911Z,0.91
2019-01-24T13:41:12.451Z,0.73
2019-01-24T13:43:41.959Z,0.70
2019-01-24T13:46:12.134Z,0.70
2019-01-24T13:48:41.635Z,0.92
2019-01-24T13:51:11.172Z,0.56
2019-01-24T13:53:40.658Z,0.55
2019-01-24T13:56:10.193Z,0.76
2019-01-24T13:58:40.304Z,0.61
2019-01-24T14:01:09.905Z,1.20
2019-01-24T14:03:42.140Z,1.06
2019-01-24T14:06:12.025Z,0.70
2019-01-24T14:08:41.518Z,0.74
2019-01-24T14:11:17.863Z,0.75
2019-01-24T14:13:42.283Z,0.69
2019-01-24T14:16:11.815Z,0.55
2019-01-24T14:18:41.354Z,0.18
2019-01-24T14:21:10.910Z,0.63
2019-01-24T14:23:40.540Z,1.52
2019-01-24T14:26:10.144Z,1.79
2019-01-24T14:28:39.644Z,2.13
2019-01-24T14:31:09.325Z,1.92
2019-01-24T14:33:38.876Z,1.70
2019-01-24T14:36:09.303Z,1.67
2019-01-24T14:38:39.010Z,1.37
2019-01-24T14:41:08.486Z,0.64
2019-01-24T14:43:38.023Z,0.28
2019-01-24T14:46:07.824Z,0.19
2019-01-24T14:48:37.353Z,0.27
2019-01-24T14:51:07.341Z,0.32
2019-01-24T14:53:36.874Z,0.39
2019-01-24T14:56:06.647Z,0.69
2019-01-24T14:58:36.148Z,0.61
2019-01-24T15:01:07.689Z,0.07
2019-01-24T15:03:37.195Z,0.00
2019-01-24T15:06:06.801Z,0.53
2019-01-24T15:08:36.349Z,0.30
2019-01-24T15:11:06.022Z,0.15
2019-01-24T15:13:35.545Z,0.11
2019-01-24T15:16:05.326Z,-0.07
2019-01-24T15:18:34.926Z,-0.22
2019-01-24T15:21:04.706Z,-0.37
2019-01-24T15:23:34.249Z,-0.52
2019-01-24T15:26:03.904Z,-0.57
2019-01-24T15:28:33.391Z,-0.55
2019-01-24T15:31:02.930Z,-0.59
2019-01-24T15:33:32.512Z,-0.64
2019-01-24T15:36:02.089Z,-0.63
2019-01-24T15:38:31.574Z,-0.74
2019-01-24T15:41:13.711Z,-0.87
2019-01-24T15:43:43.214Z,-0.90
2019-01-24T15:46:12.750Z,-0.75
2019-01-24T15:48:43.087Z,-0.89
2019-01-24T15:51:12.758Z,-0.88
2019-01-24T15:53:42.369Z,-0.91
2019-01-24T15:56:11.873Z,-1.03
2019-01-24T15:58:41.489Z,-1.11
2019-01-24T16:01:11.102Z,-1.12
2019-01-24T16:03:40.608Z,-1.12
2019-01-24T16:06:10.182Z,-1.10
2019-01-24T16:08:39.751Z,-1.12
2019-01-24T16:11:09.234Z,-1.15
2019-01-24T16:13:40.033Z,-1.17
2019-01-24T16:16:09.560Z,-1.16
2019-01-24T16:18:39.093Z,-1.16
2019-01-24T16:21:08.617Z,-1.22
2019-01-24T16:23:38.192Z,-1.23
2019-01-24T16:26:10.401Z,-1.20
2019-01-24T16:28:39.898Z,-1.20
2019-01-24T16:31:09.440Z,-1.31
2019-01-24T16:33:38.953Z,-1.31
2019-01-24T16:36:08.639Z,-1.34
2019-01-24T16:38:38.161Z,-1.09
2019-01-24T16:41:08.066Z,-1.28
2019-01-24T16:43:37.612Z,-1.39
2019-01-24T16:46:07.241Z,-1.42
2019-01-24T16:48:36.751Z,-1.42
2019-01-24T16:51:06.376Z,-1.51
2019-01-24T16:53:35.887Z,-1.57
2019-01-24T16:56:06.086Z,-1.70
2019-01-24T16:58:35.647Z,-1.74
2019-01-24T17:01:05.752Z,-1.81
2019-01-24T17:03:35.295Z,-1.90
2019-01-24T17:06:05.000Z,-1.89
2019-01-24T17:08:34.577Z,-1.87
2019-01-24T17:11:04.151Z,-1.88
2019-01-24T17:13:33.696Z,-1.87
2019-01-24T17:16:03.418Z,-1.89
2019-01-24T17:18:34.145Z,-1.96
2019-01-24T17:21:03.842Z,-1.94
2019-01-24T17:23:33.513Z,-1.98
2019-01-24T17:26:03.144Z,-1.93
2019-01-24T17:28:32.723Z,-2.02
2019-01-24T17:31:02.914Z,-2.02
2019-01-24T17:33:32.450Z,-2.02
2019-01-24T17:36:02.081Z,-2.03
2019-01-24T17:38:31.744Z,-2.02
2019-01-24T17:41:01.291Z,-2.10
2019-01-24T17:43:31.457Z,-2.08
2019-01-24T17:46:01.041Z,-1.87
2019-01-24T17:48:30.552Z,-2.02
2019-01-24T17:51:00.086Z,-2.12
2019-01-24T17:53:29.588Z,-2.16
2019-01-24T17:55:59.926Z,-2.17
2019-01-24T17:58:29.601Z,-2.20
2019-01-24T18:01:18.438Z,-2.22
2019-01-24T18:03:48.126Z,-2.12
2019-01-24T18:06:17.781Z,-2.23
2019-01-24T18:08:47.314Z,-2.24
2019-01-24T18:11:16.874Z,-2.26
2019-01-24T18:13:46.383Z,-2.17
2019-01-24T18:16:15.929Z,-2.25
2019-01-24T18:18:45.492Z,-2.26
2019-01-24T18:21:15.038Z,-2.31
2019-01-24T18:23:44.547Z,-2.46
2019-01-24T18:26:14.369Z,-2.54
2019-01-24T18:28:43.861Z,-2.57
2019-01-24T18:31:13.364Z,-2.48
2019-01-24T18:33:42.909Z,-2.51
2019-01-24T18:36:31.792Z,-2.48
2019-01-24T18:39:20.684Z,-2.43
2019-01-24T18:42:09.682Z,-2.38
2019-01-24T18:44:39.172Z,-2.47
2019-01-24T18:47:08.734Z,-2.56
2019-01-24T18:49:38.242Z,-2.56
2019-01-24T18:52:07.886Z,-2.58
2019-01-24T18:54:37.447Z,-2.66
2019-01-24T18:57:07.349Z,-2.76
2019-01-24T18:59:36.887Z,-2.71
2019-01-24T19:02:06.609Z,-2.74
2019-01-24T19:04:36.138Z,-2.76
2019-01-24T19:07:05.755Z,-2.74
2019-01-24T19:09:35.351Z,-2.79
2019-01-24T19:12:04.937Z,-2.74
2019-01-24T19:14:34.519Z,-2.77
2019-01-24T19:17:04.124Z,-2.88
2019-01-24T19:19:33.674Z,-2.98
2019-01-24T19:22:03.221Z,-2.91
2019-01-24T19:24:34.114Z,-2.93
2019-01-24T19:27:23.076Z,-2.94
2019-01-24T19:33:14.426Z,-2.95
2019-01-24T19:35:44.097Z,-2.94
2019-01-24T19:38:13.764Z,-2.91
2019-01-24T19:40:43.303Z,-2.96
2019-01-24T19:43:12.829Z,-2.94
2019-01-24T19:45:44.053Z,-2.97
2019-01-24T19:48:14.483Z,-3.01
2019-01-24T19:50:44.050Z,-3.02
2019-01-24T19:53:13.714Z,-2.95
2019-01-24T19:55:43.590Z,-2.95
2019-01-24T19:58:13.078Z,-3.06
2019-01-24T20:00:42.699Z,-2.97
2019-01-24T20:03:12.327Z,-3.01
2019-01-24T20:05:41.828Z,-3.08
2019-01-24T20:08:11.472Z,-3.03
2019-01-24T20:10:41.035Z,-3.08
2019-01-24T20:13:11.028Z,-3.08
2019-01-24T20:15:40.540Z,-3.08
2019-01-24T20:18:10.167Z,-3.11
2019-01-24T20:20:39.702Z,-3.12
2019-01-24T20:23:09.502Z,-3.13
2019-01-24T20:25:39.238Z,-3.19
2019-01-24T20:28:08.841Z,-3.25
2019-01-24T20:30:38.411Z,-3.34
2019-01-24T20:33:07.984Z,-3.37
2019-01-24T20:35:41.670Z,-3.41
2019-01-24T20:38:12.543Z,-3.40
2019-01-24T20:40:42.124Z,-3.26
2019-01-24T20:43:13.811Z,-3.21
2019-01-24T20:45:43.394Z,-3.24
2019-01-24T20:48:13.178Z,-3.17
2019-01-24T20:50:42.823Z,-3.19
2019-01-24T20:53:12.813Z,-3.26
2019-01-24T20:55:42.320Z,-3.35
2019-01-24T20:58:11.829Z,-3.38
2019-01-24T21:00:41.477Z,-3.36
2019-01-24T21:03:11.023Z,-3.36
2019-01-24T21:05:40.600Z,-3.30
2019-01-24T21:08:10.106Z,-3.29
2019-01-24T21:10:39.730Z,-3.32
2019-01-24T21:13:09.235Z,-3.38
2019-01-24T21:15:38.791Z,-3.40
2019-01-24T21:18:08.283Z,-3.47
2019-01-24T21:20:37.899Z,-3.52
2019-01-24T21:23:07.652Z,-3.50
2019-01-24T21:25:37.260Z,-3.51
2019-01-24T21:28:07.091Z,-3.50
2019-01-24T21:30:38.134Z,-3.48
2019-01-24T21:33:08.537Z,-3.41
2019-01-24T21:35:38.147Z,-3.40
2019-01-24T21:38:08.299Z,-3.41
2019-01-24T21:40:37.874Z,-3.43
2019-01-24T21:43:07.489Z,-3.25
2019-01-24T21:45:38.525Z,-3.34
2019-01-24T21:48:08.972Z,-3.46
2019-01-24T21:50:38.570Z,-3.38
2019-01-24T21:53:08.360Z,-3.47
2019-01-24T21:55:37.995Z,-3.45
2019-01-24T21:58:08.206Z,-3.32
2019-01-24T22:00:37.847Z,-3.42
2019-01-24T22:03:07.535Z,-3.34
2019-01-24T22:05:37.186Z,-3.35
2019-01-24T22:08:07.017Z,-3.36
2019-01-24T22:10:36.519Z,-3.36
2019-01-24T22:13:07.484Z,-3.43
2019-01-24T22:15:37.054Z,-3.44
2019-01-24T22:18:06.989Z,-3.49
2019-01-24T22:20:36.552Z,-3.49
2019-01-24T22:23:06.548Z,-3.57
2019-01-24T22:25:36.304Z,-3.49
2019-01-24T22:28:25.158Z,-3.63
2019-01-24T22:30:56.472Z,-3.59
2019-01-24T22:33:25.999Z,-3.73
2019-01-24T22:35:55.507Z,-3.63
2019-01-24T22:38:25.036Z,-3.70
2019-01-24T22:40:54.541Z,-3.79
2019-01-24T22:43:24.086Z,-3.83
2019-01-24T22:45:53.639Z,-3.88
2019-01-24T22:48:23.167Z,-3.86
2019-01-24T22:50:52.706Z,-3.90
2019-01-24T22:53:22.172Z,-3.93
2019-01-24T22:55:51.677Z,-3.96
2019-01-24T22:58:22.447Z,-3.97
2019-01-24T23:01:02.940Z,-3.99
2019-01-24T23:06:53.905Z,-3.87
2019-01-24T23:09:23.564Z,-4.05
2019-01-24T23:11:53.110Z,-4.08
2019-01-24T23:14:22.824Z,-3.98
2019-01-24T23:16:52.322Z,-4.01
2019-01-24T23:19:21.828Z,-4.03
2019-01-24T23:21:51.347Z,-4.02
2019-01-24T23:24:20.880Z,-4.16
2019-01-24T23:26:50.362Z,-4.10
2019-01-24T23:29:19.992Z,-4.12
2019-01-24T23:31:49.491Z,-4.17
2019-01-24T23:34:19.018Z,-4.08
2019-01-24T23:36:48.523Z,-4.20
2019-01-24T23:39:18.069Z,-4.24
2019-01-24T23:41:47.603Z,-4.14
2019-01-24T23:44:17.125Z,-4.13
2019-01-24T23:46:46.628Z,-4.01
2019-01-24T23:49:17.298Z,-4.02
2019-01-24T23:51:46.795Z,-4.11
2019-01-24T23:54:16.314Z,-4.16
2019-01-24T23:56:45.903Z,-4.11
2019-01-24T23:59:15.460Z,-4.05
